Aviation Digital Data Service (ADDS)

Output produced by METARs form (2214 UTC 23 April 2019)
found at http://www.aviationweather.gov/metar/data/
 
TAF WMKE 231700Z 2318/2418 VRB03KT 9999 FEW016 SCT140 BKN280 
     TEMPO 2320/2323 6000 -TSRA FEW010 FEW017CB SCT020 BKN150 
     BECMG 2405/2407 05008KT